Cheneyville, LA (71325)

10:58 AM CDT on July 27, 2016 (GMT -0500)
Hessmer | | Change Station

Elev 92 ft 31.03 °N, 92.15 °W | Updated 16 seconds ago

Overcast
Overcast
90.0 °F
Feels Like 109 °F
N
2.2
Wind Variable Wind from North
Gusts 6.3 mph

Today
High -- | Low -- °F
--% Chance of Precip.
Yesterday
High -- | Low -- °F
Precip. -- in
Pressure 30.00 in
Visibility 7.0 miles
Clouds Mostly Cloudy 1100 ft
Overcast 1500 ft
Heat Index 109 °F
Dew Point 81 °F
Humidity 74%
Rainfall 0.02 in
Snow Depth Not available.
6:23 AM 8:07 PM
Last Quarter, 42% visible
METAR KESF 271553Z AUTO 26009KT 7SM BKN011 OVC015 26/26 A3001 RMK AO2 RAE40 TSE02 CIG 006V012 SLP158 P0003 T02610256 $
Pressure 30.00 in
Visibility 7.0 miles
Clouds Mostly Cloudy 1100 ft
Overcast 1500 ft
Heat Index 109 °F
Dew Point 81 °F
Humidity 74%
Rainfall 0.02 in
Snow Depth Not available.
6:23 AM 8:07 PM
Last Quarter, 42% visible
METAR KESF 271553Z AUTO 26009KT 7SM BKN011 OVC015 26/26 A3001 RMK AO2 RAE40 TSE02 CIG 006V012 SLP158 P0003 T02610256 $

10-Day Weather Forecast

Almanac

Astronomy

Jul. 27, 2016 Rise Set
Actual Time
Civil Twilight
Nautical Twilight
Astronomical Twilight
Moon
Length of Visible Light
Length of Day
Tomorrow will be .
, % of the Moon is Illuminated

Today's Extremes

State Highs State Lows

Community

WunderPhotos

Upload Photos

1,927,866 photos uploaded!

WunderBlog® & News

Nearby

Air Quality

  Air Quality AQ Index Pollutant
Not available.

Snow Depth

Station Depth Elevation

Earthquake Activity

City Distance Mag. Time & Date
Minimum magnitude displayed is 2.5.

Coastal Water Temperatures

Place Temperature

Stations

Nearby Weather Stations

Station Location Temp. Windchill Dew Point Humidity Wind Precip. Elev Updated Type
                   

Watches & Warnings

There are currently no watches in effect.